createdAt,value
2022-08-26T00:01:52.626Z,7.60
2022-08-26T00:04:20.811Z,6.80
2022-08-26T00:06:47.707Z,7.10
2022-08-26T00:09:16.093Z,7.40
2022-08-26T00:11:45.462Z,7.50
2022-08-26T00:14:13.968Z,7.03
2022-08-26T00:16:47.466Z,8.25
2022-08-26T00:19:16.247Z,7.13
2022-08-26T00:21:43.478Z,7.53
2022-08-26T00:24:10.477Z,7.00
2022-08-26T00:26:37.796Z,7.50
2022-08-26T00:29:05.109Z,7.63
2022-08-26T00:31:32.717Z,7.63
2022-08-26T00:34:00.164Z,7.50
2022-08-26T00:36:29.688Z,7.00
2022-08-26T00:38:57.338Z,7.88
2022-08-26T00:41:24.063Z,7.90
2022-08-26T00:43:51.238Z,7.60
2022-08-26T00:46:25.613Z,7.68
2022-08-26T00:49:12.319Z,8.13
2022-08-26T00:51:49.815Z,8.02
2022-08-26T00:54:19.110Z,7.78
2022-08-26T00:56:55.867Z,7.28
2022-08-26T00:59:23.967Z,7.90
2022-08-26T01:01:51.630Z,8.23
2022-08-26T01:04:22.760Z,8.10
2022-08-26T01:06:53.023Z,8.00
2022-08-26T01:09:21.635Z,7.82
2022-08-26T01:11:51.023Z,7.88
2022-08-26T01:14:20.124Z,8.07
2022-08-26T01:16:47.988Z,7.95
2022-08-26T01:19:44.773Z,8.13
2022-08-26T01:22:28.331Z,8.23
2022-08-26T01:24:57.830Z,9.02
2022-08-26T01:27:24.894Z,9.20
2022-08-26T01:29:52.030Z,9.05
2022-08-26T01:32:23.428Z,9.82
2022-08-26T01:34:51.007Z,9.40
2022-08-26T01:37:33.142Z,9.63
2022-08-26T01:40:00.527Z,10.18
2022-08-26T01:42:29.216Z,9.77
2022-08-26T01:45:26.649Z,9.27
2022-08-26T01:47:57.042Z,8.95
2022-08-26T01:50:30.149Z,9.48
2022-08-26T01:53:00.415Z,9.73
2022-08-26T01:55:32.602Z,8.82
2022-08-26T01:58:04.792Z,9.05
2022-08-26T02:00:35.140Z,9.63
2022-08-26T02:03:17.126Z,9.77
2022-08-26T02:05:48.933Z,9.10
2022-08-26T02:08:25.299Z,9.13
2022-08-26T02:10:54.646Z,9.70
2022-08-26T02:13:23.360Z,9.45
2022-08-26T02:15:52.313Z,9.50
2022-08-26T02:18:19.548Z,10.43
2022-08-26T02:20:46.358Z,9.35
2022-08-26T02:23:13.120Z,9.60
2022-08-26T02:25:42.416Z,10.00
2022-08-26T02:28:10.942Z,10.00
2022-08-26T02:30:40.063Z,10.88
2022-08-26T02:33:07.480Z,10.75
2022-08-26T02:35:36.674Z,10.35
2022-08-26T02:38:10.249Z,9.50
2022-08-26T02:40:41.328Z,10.52
2022-08-26T02:43:09.877Z,10.70
2022-08-26T02:45:36.788Z,10.18
2022-08-26T02:48:10.882Z,11.07
2022-08-26T02:50:38.661Z,9.85
2022-08-26T02:53:09.139Z,10.43
2022-08-26T02:55:37.021Z,11.10
2022-08-26T02:58:04.807Z,11.85
2022-08-26T03:00:31.919Z,11.45
2022-08-26T03:02:59.290Z,10.90
2022-08-26T03:05:26.354Z,10.85
2022-08-26T03:07:53.057Z,12.02
2022-08-26T03:10:21.737Z,12.27
2022-08-26T03:12:49.146Z,12.15
2022-08-26T03:15:19.811Z,11.75
2022-08-26T03:17:48.166Z,12.95
2022-08-26T03:20:17.355Z,12.00
2022-08-26T03:22:44.850Z,13.35
2022-08-26T03:25:15.039Z,13.25
2022-08-26T03:27:42.995Z,12.55
2022-08-26T03:30:30.612Z,12.43
2022-08-26T03:32:57.604Z,13.45
2022-08-26T03:35:25.861Z,13.30
2022-08-26T03:37:53.516Z,12.75
2022-08-26T03:40:21.324Z,13.52
2022-08-26T03:42:49.513Z,13.93
2022-08-26T03:45:18.129Z,15.70
2022-08-26T03:47:46.293Z,15.55
2022-08-26T03:50:18.219Z,15.52
2022-08-26T03:52:51.700Z,17.10
2022-08-26T03:55:19.952Z,17.25
2022-08-26T03:57:51.133Z,16.45
2022-08-26T04:00:18.767Z,17.98
2022-08-26T04:02:48.946Z,17.88
2022-08-26T04:05:17.663Z,18.40
2022-08-26T04:07:44.758Z,19.23
2022-08-26T04:10:14.975Z,18.88
2022-08-26T04:12:46.278Z,21.60
2022-08-26T04:15:15.719Z,21.05
2022-08-26T04:17:42.662Z,21.00
2022-08-26T04:20:10.356Z,21.33
2022-08-26T04:22:37.043Z,22.92
2022-08-26T04:25:04.159Z,21.80
2022-08-26T04:27:33.803Z,22.80
2022-08-26T04:30:01.234Z,24.60
2022-08-26T04:32:28.693Z,23.63
2022-08-26T04:34:55.638Z,24.98
2022-08-26T04:37:22.489Z,25.00
2022-08-26T04:39:54.781Z,27.38
2022-08-26T04:42:26.067Z,27.95
2022-08-26T04:44:53.133Z,28.60
2022-08-26T04:47:19.985Z,26.88
2022-08-26T04:49:46.927Z,28.48
2022-08-26T04:52:13.751Z,29.35
2022-08-26T04:54:42.023Z,31.55
2022-08-26T04:57:08.893Z,29.27
2022-08-26T04:59:39.083Z,32.95
2022-08-26T05:02:07.172Z,33.60
2022-08-26T05:04:34.332Z,34.05
2022-08-26T05:07:02.278Z,33.08
2022-08-26T05:09:30.412Z,36.28
2022-08-26T05:11:57.627Z,34.47
2022-08-26T05:14:24.585Z,35.15
2022-08-26T05:16:52.282Z,34.95
2022-08-26T05:19:19.592Z,35.97
2022-08-26T05:21:47.847Z,35.17
2022-08-26T05:24:15.329Z,34.70
2022-08-26T05:26:42.548Z,34.17
2022-08-26T05:29:11.839Z,33.70
2022-08-26T05:31:38.615Z,34.50
2022-08-26T05:34:06.034Z,34.60
2022-08-26T05:36:35.341Z,33.95
2022-08-26T05:39:05.160Z,34.10
2022-08-26T05:41:36.603Z,34.63
2022-08-26T05:44:08.605Z,33.85
2022-08-26T05:46:36.796Z,31.90
2022-08-26T05:49:05.691Z,32.47
2022-08-26T05:51:33.225Z,30.55
2022-08-26T05:54:02.802Z,33.65
2022-08-26T05:56:30.867Z,30.88
2022-08-26T05:58:58.708Z,28.33
2022-08-26T06:01:27.878Z,29.83
2022-08-26T06:04:01.662Z,27.98
2022-08-26T06:06:31.974Z,28.73
2022-08-26T06:09:00.862Z,27.90
2022-08-26T06:11:30.624Z,29.45
2022-08-26T06:14:03.869Z,27.13
2022-08-26T06:16:34.809Z,27.65
2022-08-26T06:19:03.693Z,27.70
2022-08-26T06:21:39.408Z,26.05
2022-08-26T06:24:30.920Z,26.88
2022-08-26T06:27:03.550Z,25.27
2022-08-26T06:29:33.734Z,27.02
2022-08-26T06:32:02.713Z,27.05
2022-08-26T06:34:30.632Z,25.35
2022-08-26T06:37:01.401Z,24.10
2022-08-26T06:39:30.650Z,25.33
2022-08-26T06:41:59.144Z,25.35
2022-08-26T06:44:27.290Z,24.48
2022-08-26T06:46:54.167Z,24.05
2022-08-26T06:49:26.801Z,23.63
2022-08-26T06:51:58.546Z,24.33
2022-08-26T06:54:26.851Z,24.35
2022-08-26T06:56:53.947Z,24.17
2022-08-26T06:59:22.072Z,24.95
2022-08-26T07:01:49.816Z,24.88
2022-08-26T07:04:21.750Z,22.48
2022-08-26T07:06:53.363Z,23.33
2022-08-26T07:09:25.559Z,23.58
2022-08-26T07:11:56.272Z,24.55
2022-08-26T07:14:25.044Z,24.98
2022-08-26T07:16:53.559Z,24.30
2022-08-26T07:19:31.207Z,23.38
2022-08-26T07:22:03.487Z,24.65
2022-08-26T07:24:32.257Z,24.15
2022-08-26T07:27:05.437Z,23.55
2022-08-26T07:29:33.708Z,24.27
2022-08-26T07:32:01.369Z,23.52
2022-08-26T07:34:28.615Z,25.23
2022-08-26T07:36:57.156Z,25.00
2022-08-26T07:39:26.584Z,23.17
2022-08-26T07:41:54.214Z,24.55
2022-08-26T07:44:21.259Z,24.17
2022-08-26T07:46:52.249Z,24.55
2022-08-26T07:49:22.393Z,24.75
2022-08-26T07:51:51.018Z,24.38
2022-08-26T07:54:18.620Z,24.30
2022-08-26T07:56:46.274Z,23.77
2022-08-26T07:59:15.120Z,22.33
2022-08-26T08:01:44.874Z,24.05
2022-08-26T08:04:15.346Z,24.25
2022-08-26T08:06:43.976Z,23.95
2022-08-26T08:09:12.437Z,24.17
2022-08-26T08:11:40.069Z,24.42
2022-08-26T08:14:08.646Z,24.67
2022-08-26T08:16:42.428Z,22.67
2022-08-26T08:19:15.005Z,23.50
2022-08-26T08:21:43.389Z,23.65
2022-08-26T08:24:11.411Z,23.30
2022-08-26T08:26:39.280Z,23.95
2022-08-26T08:29:08.074Z,23.13
2022-08-26T08:34:23.756Z,22.58
2022-08-26T08:36:53.335Z,22.20
2022-08-26T08:39:21.915Z,21.67
2022-08-26T08:42:00.790Z,23.92
2022-08-26T08:44:29.769Z,22.17
2022-08-26T08:47:18.113Z,22.05
2022-08-26T08:49:45.414Z,21.88
2022-08-26T08:52:35.529Z,23.50
2022-08-26T08:55:11.145Z,22.90
2022-08-26T08:57:53.770Z,22.48
2022-08-26T09:00:30.329Z,23.90
2022-08-26T09:03:03.932Z,21.75
2022-08-26T09:05:42.601Z,20.45
2022-08-26T09:08:19.879Z,21.25
2022-08-26T09:10:52.877Z,21.67
2022-08-26T09:13:25.204Z,20.35
2022-08-26T09:16:20.203Z,22.30
2022-08-26T09:18:56.359Z,21.00
2022-08-26T09:21:25.136Z,20.17
2022-08-26T09:23:56.792Z,19.45
2022-08-26T09:26:29.197Z,18.92
2022-08-26T09:29:08.992Z,18.60
2022-08-26T09:31:39.267Z,17.30
2022-08-26T09:34:12.187Z,17.48
2022-08-26T09:36:48.671Z,17.05
2022-08-26T09:39:24.401Z,17.02
2022-08-26T09:42:14.272Z,18.05
2022-08-26T09:44:55.778Z,17.15
2022-08-26T09:47:39.518Z,16.55
2022-08-26T09:50:36.253Z,17.77
2022-08-26T09:53:12.848Z,16.60
2022-08-26T09:56:10.231Z,17.23
2022-08-26T09:58:40.376Z,17.23
2022-08-26T10:01:35.450Z,17.80
2022-08-26T10:04:15.122Z,17.73
2022-08-26T10:06:54.822Z,18.55
2022-08-26T10:09:23.871Z,17.85
2022-08-26T10:11:55.300Z,19.05
2022-08-26T10:14:28.086Z,17.40
2022-08-26T10:17:21.881Z,18.10
2022-08-26T10:19:57.708Z,17.77
2022-08-26T10:22:27.008Z,16.60
2022-08-26T10:24:57.785Z,18.17
2022-08-26T10:27:51.157Z,17.27
2022-08-26T10:30:22.418Z,17.38
2022-08-26T10:32:54.081Z,18.70
2022-08-26T10:35:21.423Z,16.55
2022-08-26T10:37:54.064Z,16.60
2022-08-26T10:40:27.966Z,18.08
2022-08-26T10:43:12.700Z,16.50
2022-08-26T10:45:50.410Z,17.45
2022-08-26T10:48:24.553Z,15.93
2022-08-26T10:50:52.253Z,15.50
2022-08-26T10:53:45.313Z,15.07
2022-08-26T10:56:51.875Z,15.30
2022-08-26T10:59:19.647Z,15.38
2022-08-26T11:02:10.771Z,14.65
2022-08-26T11:04:51.073Z,14.48
2022-08-26T11:07:37.641Z,14.15
2022-08-26T11:10:21.477Z,14.65
2022-08-26T11:12:51.627Z,14.93
2022-08-26T11:15:24.752Z,14.15
2022-08-26T11:17:51.700Z,13.35
2022-08-26T11:20:42.383Z,14.18
2022-08-26T11:23:24.378Z,14.15
2022-08-26T11:26:09.837Z,12.70
2022-08-26T11:28:44.189Z,13.07
2022-08-26T11:31:26.792Z,12.93
2022-08-26T11:33:59.717Z,12.80
2022-08-26T11:36:38.800Z,12.20
2022-08-26T11:39:18.151Z,12.43
2022-08-26T11:41:52.924Z,11.88
2022-08-26T11:44:25.825Z,12.35
2022-08-26T11:46:59.687Z,11.63
2022-08-26T11:49:31.626Z,11.02
2022-08-26T11:52:20.943Z,11.02
2022-08-26T11:55:15.679Z,10.50
2022-08-26T11:57:47.069Z,10.07
2022-08-26T12:00:24.516Z,9.48
2022-08-26T12:02:52.374Z,9.88
2022-08-26T12:05:30.845Z,9.80
2022-08-26T12:08:03.213Z,10.10
2022-08-26T12:10:33.975Z,11.25
2022-08-26T12:13:03.182Z,10.98
2022-08-26T12:15:32.350Z,10.77
2022-08-26T12:18:18.176Z,10.18
2022-08-26T12:20:56.425Z,9.65
2022-08-26T12:23:36.522Z,8.25
2022-08-26T12:26:08.534Z,8.23
2022-08-26T12:28:59.223Z,8.77
2022-08-26T12:31:27.894Z,6.88
2022-08-26T12:33:56.694Z,7.60
2022-08-26T12:36:50.881Z,6.78
2022-08-26T12:39:28.622Z,6.97
2022-08-26T12:41:58.211Z,6.88
2022-08-26T12:44:38.319Z,6.43
2022-08-26T12:47:09.039Z,5.80
2022-08-26T12:49:39.512Z,5.75
2022-08-26T12:52:09.572Z,5.80
2022-08-26T12:54:56.973Z,5.10
2022-08-26T12:57:33.320Z,5.18
2022-08-26T13:00:31.103Z,5.30
2022-08-26T13:03:00.555Z,5.45
2022-08-26T13:05:33.989Z,6.32
2022-08-26T13:08:25.785Z,5.75
2022-08-26T13:11:05.186Z,5.90
2022-08-26T13:13:32.132Z,5.30
2022-08-26T13:16:00.054Z,5.10
2022-08-26T13:18:27.004Z,5.25
2022-08-26T13:20:53.944Z,5.00
2022-08-26T13:23:23.448Z,5.25
2022-08-26T13:25:51.322Z,4.68
2022-08-26T13:28:18.658Z,4.82
2022-08-26T13:30:48.253Z,5.20
2022-08-26T13:33:16.821Z,4.70
2022-08-26T13:35:45.219Z,5.30
2022-08-26T13:38:22.326Z,4.13
2022-08-26T13:41:00.605Z,4.28
2022-08-26T13:43:27.789Z,4.15
2022-08-26T13:45:54.941Z,4.60
2022-08-26T13:48:23.588Z,4.25
2022-08-26T13:50:51.950Z,5.03
2022-08-26T13:53:18.971Z,4.80
2022-08-26T13:55:46.454Z,4.70
2022-08-26T13:58:13.829Z,4.13
2022-08-26T14:00:41.930Z,4.78
2022-08-26T14:03:13.222Z,3.92
2022-08-26T14:05:40.842Z,3.95
2022-08-26T14:08:08.087Z,4.20
2022-08-26T14:10:35.717Z,3.80
2022-08-26T14:13:02.633Z,3.65
2022-08-26T14:15:34.163Z,4.22
2022-08-26T14:18:03.623Z,3.45
2022-08-26T14:20:31.689Z,3.67
2022-08-26T14:23:13.253Z,3.55
2022-08-26T14:25:41.021Z,3.53
2022-08-26T14:28:07.835Z,3.60
2022-08-26T14:30:34.695Z,3.38
2022-08-26T14:33:02.551Z,3.78
2022-08-26T14:35:30.671Z,4.03
2022-08-26T14:37:58.142Z,4.28
2022-08-26T14:40:30.095Z,4.03
2022-08-26T14:42:58.790Z,4.13
2022-08-26T14:45:27.605Z,4.32
2022-08-26T14:47:56.807Z,4.80
2022-08-26T14:50:25.485Z,3.65
2022-08-26T14:53:11.296Z,3.70
2022-08-26T14:55:41.519Z,3.47
2022-08-26T14:58:10.191Z,3.67
2022-08-26T15:00:37.673Z,3.60
2022-08-26T15:03:05.733Z,3.65
2022-08-26T15:05:33.974Z,3.10
2022-08-26T15:08:02.381Z,3.45
2022-08-26T15:10:29.043Z,4.15
2022-08-26T15:12:55.967Z,3.13
2022-08-26T15:15:24.171Z,3.33
2022-08-26T15:17:51.500Z,3.63
2022-08-26T15:20:18.434Z,3.00
2022-08-26T15:22:45.479Z,3.30
2022-08-26T15:25:13.012Z,3.40
2022-08-26T15:27:39.885Z,3.20
2022-08-26T15:30:10.485Z,2.92
2022-08-26T15:32:37.349Z,3.10
2022-08-26T15:35:08.826Z,3.85
2022-08-26T15:37:36.277Z,2.92
2022-08-26T15:40:04.091Z,2.78
2022-08-26T15:42:31.023Z,2.47
2022-08-26T15:44:57.806Z,2.75
2022-08-26T15:47:24.646Z,2.47
2022-08-26T15:49:51.493Z,2.58
2022-08-26T15:52:19.626Z,2.63
2022-08-26T15:54:46.472Z,2.50
2022-08-26T15:57:15.312Z,2.63
2022-08-26T15:59:43.422Z,2.65
2022-08-26T16:02:10.757Z,3.35
2022-08-26T16:04:37.714Z,3.00
2022-08-26T16:07:05.020Z,3.50
2022-08-26T16:09:31.953Z,3.40
2022-08-26T16:11:58.866Z,3.22
2022-08-26T16:14:26.707Z,2.65
2022-08-26T16:16:53.602Z,2.80
2022-08-26T16:19:21.171Z,3.13
2022-08-26T16:21:48.337Z,3.10
2022-08-26T16:24:15.197Z,2.60
2022-08-26T16:26:44.037Z,2.53
2022-08-26T16:29:14.747Z,2.83
2022-08-26T16:31:42.045Z,3.33
2022-08-26T16:34:09.887Z,3.00
2022-08-26T16:36:38.645Z,3.13
2022-08-26T16:39:07.671Z,3.05
2022-08-26T16:41:35.227Z,2.85
2022-08-26T16:44:02.516Z,3.17
2022-08-26T16:46:30.015Z,2.63
2022-08-26T16:48:58.592Z,3.22
2022-08-26T16:51:27.942Z,3.40
2022-08-26T16:53:56.734Z,3.28
2022-08-26T16:56:33.547Z,3.42
2022-08-26T16:59:02.958Z,3.50
2022-08-26T17:01:30.249Z,3.22
2022-08-26T17:03:57.370Z,3.70
2022-08-26T17:06:24.301Z,2.53
2022-08-26T17:08:51.005Z,2.88
2022-08-26T17:11:17.894Z,3.05
2022-08-26T17:13:44.833Z,3.53
2022-08-26T17:16:13.274Z,2.50
2022-08-26T17:18:40.655Z,2.60
2022-08-26T17:21:11.619Z,2.53
2022-08-26T17:23:39.674Z,2.35
2022-08-26T17:26:07.487Z,2.40
2022-08-26T17:28:34.473Z,2.10
2022-08-26T17:31:01.834Z,2.63
2022-08-26T17:33:29.316Z,2.30
2022-08-26T17:36:00.545Z,2.40
2022-08-26T17:38:29.332Z,2.47
2022-08-26T17:40:57.469Z,2.60
2022-08-26T17:43:26.885Z,2.65
2022-08-26T17:46:00.066Z,3.40
2022-08-26T17:48:35.706Z,2.70
2022-08-26T17:51:14.019Z,2.72
2022-08-26T17:53:41.786Z,2.95
2022-08-26T17:56:11.590Z,2.58
2022-08-26T17:58:40.731Z,2.55
2022-08-26T18:01:19.573Z,3.10
2022-08-26T18:03:46.487Z,3.72
2022-08-26T18:06:14.237Z,2.47
2022-08-26T18:08:41.742Z,2.75
2022-08-26T18:11:10.890Z,2.35
2022-08-26T18:13:38.963Z,2.13
2022-08-26T18:16:14.313Z,2.55
2022-08-26T18:18:42.270Z,2.45
2022-08-26T18:21:18.217Z,2.58
2022-08-26T18:23:46.994Z,2.90
2022-08-26T18:26:22.485Z,2.55
2022-08-26T18:31:18.534Z,2.22
2022-08-26T18:33:46.129Z,2.70
2022-08-26T18:36:25.087Z,3.30
2022-08-26T18:38:55.096Z,2.05
2022-08-26T18:41:25.054Z,2.75
2022-08-26T18:43:53.292Z,3.28
2022-08-26T18:46:33.076Z,2.42
2022-08-26T18:49:03.433Z,2.25
2022-08-26T18:51:33.673Z,2.40
2022-08-26T18:54:03.174Z,2.20
2022-08-26T18:56:30.512Z,2.80
2022-08-26T18:58:59.255Z,2.85
2022-08-26T19:01:28.320Z,2.80
2022-08-26T19:03:59.527Z,2.63
2022-08-26T19:06:28.374Z,2.40
2022-08-26T19:08:55.845Z,2.60
2022-08-26T19:11:31.593Z,2.78
2022-08-26T19:14:00.940Z,3.28
2022-08-26T19:16:28.766Z,3.10
2022-08-26T19:18:56.482Z,3.17
2022-08-26T19:21:24.035Z,3.13
2022-08-26T19:23:51.501Z,4.22
2022-08-26T19:26:18.653Z,4.43
2022-08-26T19:28:45.476Z,3.70
2022-08-26T19:31:12.754Z,3.33
2022-08-26T19:33:43.194Z,4.00
2022-08-26T19:36:18.579Z,4.30
2022-08-26T19:38:46.097Z,3.78
2022-08-26T19:41:14.843Z,4.43
2022-08-26T19:43:42.653Z,4.00
2022-08-26T19:46:15.350Z,3.83
2022-08-26T19:48:45.269Z,4.00
2022-08-26T19:51:15.776Z,3.95
2022-08-26T19:53:52.851Z,3.60
2022-08-26T19:56:24.286Z,3.17
2022-08-26T19:58:51.575Z,3.58
2022-08-26T20:01:22.240Z,3.58
2022-08-26T20:03:52.419Z,3.67
2022-08-26T20:06:20.356Z,4.10
2022-08-26T20:08:47.910Z,3.67
2022-08-26T20:11:19.087Z,3.72
2022-08-26T20:13:47.157Z,3.33
2022-08-26T20:16:15.132Z,3.33
2022-08-26T20:19:01.780Z,3.08
2022-08-26T20:21:33.217Z,3.85
2022-08-26T20:24:13.084Z,3.05
2022-08-26T20:26:42.238Z,4.05
2022-08-26T20:29:11.575Z,3.80
2022-08-26T20:31:39.703Z,3.70
2022-08-26T20:34:06.924Z,3.88
2022-08-26T20:36:34.235Z,4.20
2022-08-26T20:39:01.104Z,4.47
2022-08-26T20:41:28.731Z,3.67
2022-08-26T20:43:56.443Z,3.80
2022-08-26T20:46:25.244Z,4.03
2022-08-26T20:48:53.340Z,4.03
2022-08-26T20:51:21.614Z,4.50
2022-08-26T20:53:48.547Z,4.32
2022-08-26T20:56:21.862Z,5.10
2022-08-26T20:58:48.798Z,4.97
2022-08-26T21:01:21.674Z,5.68
2022-08-26T21:03:54.079Z,5.30
2022-08-26T21:06:21.877Z,5.55
2022-08-26T21:08:50.173Z,4.75
2022-08-26T21:11:19.903Z,5.53
2022-08-26T21:16:36.337Z,5.07
2022-08-26T21:19:07.966Z,5.10
2022-08-26T21:21:35.407Z,5.90
2022-08-26T21:24:02.832Z,5.57
2022-08-26T21:26:29.927Z,5.05
2022-08-26T21:28:56.891Z,5.95
2022-08-26T21:31:25.089Z,5.75
2022-08-26T21:33:52.286Z,5.55
2022-08-26T21:36:20.107Z,6.00
2022-08-26T21:38:48.523Z,5.40
2022-08-26T21:41:19.706Z,5.55
2022-08-26T21:43:47.744Z,5.63
2022-08-26T21:46:18.040Z,5.13
2022-08-26T21:48:50.765Z,5.47
2022-08-26T21:51:20.777Z,6.03
2022-08-26T21:53:48.108Z,5.60
2022-08-26T21:56:17.930Z,6.70
2022-08-26T21:58:45.472Z,5.75
2022-08-26T22:01:16.510Z,5.55
2022-08-26T22:03:47.547Z,5.75
2022-08-26T22:06:17.943Z,6.03
2022-08-26T22:08:44.844Z,5.43
2022-08-26T22:11:15.651Z,6.00
2022-08-26T22:13:43.640Z,5.95
2022-08-26T22:16:11.621Z,4.97
2022-08-26T22:18:39.586Z,4.60
2022-08-26T22:21:09.734Z,4.50
2022-08-26T22:23:44.367Z,3.50
2022-08-26T22:26:15.479Z,4.53
2022-08-26T22:28:57.451Z,4.00
2022-08-26T22:31:37.660Z,3.65
2022-08-26T22:34:11.295Z,3.00
2022-08-26T22:36:44.169Z,3.13
2022-08-26T22:39:17.471Z,3.10
2022-08-26T22:41:45.461Z,2.85
2022-08-26T22:44:12.718Z,2.63
2022-08-26T22:46:41.794Z,2.90
2022-08-26T22:49:15.883Z,2.53
2022-08-26T22:51:45.239Z,2.72
2022-08-26T22:54:13.213Z,2.63
2022-08-26T22:56:40.857Z,2.00
2022-08-26T22:59:11.275Z,2.60
2022-08-26T23:01:42.655Z,2.30
2022-08-26T23:04:11.671Z,2.30
2022-08-26T23:06:41.306Z,2.03
2022-08-26T23:09:09.612Z,1.85
2022-08-26T23:11:38.678Z,2.42
2022-08-26T23:14:10.400Z,2.15
2022-08-26T23:16:39.308Z,2.47
2022-08-26T23:19:08.411Z,2.20
2022-08-26T23:21:35.617Z,2.22
2022-08-26T23:24:02.652Z,2.13
2022-08-26T23:26:31.831Z,2.00
2022-08-26T23:29:00.742Z,2.33
2022-08-26T23:31:27.895Z,1.92
2022-08-26T23:34:13.863Z,2.20
2022-08-26T23:36:43.400Z,2.35
2022-08-26T23:39:13.684Z,2.00
2022-08-26T23:41:40.905Z,2.42
2022-08-26T23:44:07.918Z,2.30
2022-08-26T23:46:35.640Z,2.10
2022-08-26T23:49:02.446Z,2.08
2022-08-26T23:51:48.272Z,1.83
2022-08-26T23:54:15.241Z,1.60
2022-08-26T23:56:42.469Z,2.17
2022-08-26T23:59:09.522Z,2.30
